Time;durP1;ratioP1;P1;durP2;ratioP2;P2;SDS_P1;SDS_P2;PMS_P1;PMS_P2;Temp;Humidity;BMP_temperature;BMP_pressure;BME280_temperature;BME280_humidity;BME280_pressure;Samples;Min_cycle;Max_cycle;Signal;HPM_P1;HPM_P2
2020/12/17 00:01:12;;;;;;;15.40;7.53;;;;;;;;;;10211201;28;20125;-61
2020/12/17 00:06:12;;;;;;;13.03;7.73;;;;;;;;;;10207126;28;20115;-56
2020/12/17 00:11:10;;;;;;;16.70;7.93;;;;;;;;;;10210606;28;20575;-62
2020/12/17 00:16:08;;;;;;;15.43;8.67;;;;;;;;;;10179019;28;20112;-59
2020/12/17 00:21:05;;;;;;;16.23;7.63;;;;;;;;;;10214738;28;20038;-56
2020/12/17 00:26:02;;;;;;;14.93;6.90;;;;;;;;;;10210427;28;20130;-59
2020/12/17 00:31:00;;;;;;;14.37;8.13;;;;;;;;;;10207580;28;20042;-57
2020/12/17 00:35:57;;;;;;;14.43;8.53;;;;;;;;;;10206939;28;20038;-59
2020/12/17 00:40:54;;;;;;;17.87;7.90;;;;;;;;;;10205958;28;20096;-56
2020/12/17 00:45:52;;;;;;;14.67;7.87;;;;;;;;;;10204133;28;20026;-56
2020/12/17 00:50:49;;;;;;;15.43;8.53;;;;;;;;;;10207548;28;20038;-57
2020/12/17 00:55:47;;;;;;;16.43;7.47;;;;;;;;;;10200943;28;20030;-63
2020/12/17 01:00:44;;;;;;;21.70;9.17;;;;;;;;;;10192472;28;20062;-56
2020/12/17 01:05:41;;;;;;;16.67;8.13;;;;;;;;;;10196754;28;20456;-55
2020/12/17 01:10:39;;;;;;;19.17;9.03;;;;;;;;;;10204076;28;20093;-62
2020/12/17 01:15:36;;;;;;;16.20;8.27;;;;;;;;;;10191508;28;20046;-56
2020/12/17 01:20:34;;;;;;;16.60;8.43;;;;;;;;;;10208567;28;20046;-55
2020/12/17 01:25:31;;;;;;;17.83;8.30;;;;;;;;;;10205454;28;20038;-56
2020/12/17 01:30:28;;;;;;;15.03;7.57;;;;;;;;;;10202040;28;20038;-60
2020/12/17 01:35:26;;;;;;;19.42;9.30;;;;;;;;;;10209491;28;20137;-57
2020/12/17 01:40:24;;;;;;;15.50;9.27;;;;;;;;;;10200371;28;20719;-56
2020/12/17 01:45:21;;;;;;;18.23;7.23;;;;;;;;;;10191215;28;20046;-63
2020/12/17 01:50:19;;;;;;;19.13;9.53;;;;;;;;;;10212705;28;20038;-57
2020/12/17 01:55:18;;;;;;;19.93;9.80;;;;;;;;;;10211694;28;20042;-56
2020/12/17 02:00:19;;;;;;;17.23;8.18;;;;;;;;;;10212315;28;20623;-60
2020/12/17 02:05:16;;;;;;;18.77;8.00;;;;;;;;;;10214879;28;20093;-55
2020/12/17 02:10:14;;;;;;;17.70;8.43;;;;;;;;;;10206018;28;20038;-57
2020/12/17 02:15:11;;;;;;;16.33;8.27;;;;;;;;;;10200444;28;20069;-56
2020/12/17 02:20:09;;;;;;;14.80;7.07;;;;;;;;;;10193331;28;20049;-57
2020/12/17 02:25:12;;;;;;;18.80;9.13;;;;;;;;;;10209119;28;20049;-58
2020/12/17 02:30:10;;;;;;;21.17;8.38;;;;;;;;;;10212325;28;20042;-57
2020/12/17 02:35:09;;;;;;;21.60;9.07;;;;;;;;;;10197159;28;20409;-61
2020/12/17 02:40:07;;;;;;;14.57;7.13;;;;;;;;;;10192275;28;20035;-54
2020/12/17 02:45:04;;;;;;;13.67;7.13;;;;;;;;;;10205174;28;20516;-59
2020/12/17 02:50:03;;;;;;;24.23;10.53;;;;;;;;;;10206716;28;20044;-57
2020/12/17 02:55:00;;;;;;;21.30;7.88;;;;;;;;;;10203881;28;20046;-61
2020/12/17 02:59:58;;;;;;;15.80;8.07;;;;;;;;;;10204617;28;20050;-53
2020/12/17 03:04:55;;;;;;;21.57;8.70;;;;;;;;;;10212048;28;20034;-56
2020/12/17 03:09:53;;;;;;;19.37;8.50;;;;;;;;;;10202548;28;20043;-57
2020/12/17 03:14:50;;;;;;;16.47;8.33;;;;;;;;;;10206558;28;20101;-59
2020/12/17 03:19:47;;;;;;;24.37;9.63;;;;;;;;;;10208707;28;20026;-57
2020/12/17 03:24:45;;;;;;;22.63;10.47;;;;;;;;;;10210335;28;20081;-63
2020/12/17 03:29:43;;;;;;;20.83;9.88;;;;;;;;;;10203993;28;20498;-58
2020/12/17 03:34:40;;;;;;;22.30;8.60;;;;;;;;;;10209075;28;20880;-54
2020/12/17 03:39:40;;;;;;;21.03;10.33;;;;;;;;;;10216921;28;20049;-63
2020/12/17 03:44:37;;;;;;;16.58;7.97;;;;;;;;;;10198777;28;20129;-59
2020/12/17 03:49:35;;;;;;;18.67;8.90;;;;;;;;;;10201149;28;20125;-59
2020/12/17 03:54:32;;;;;;;19.50;9.33;;;;;;;;;;10208845;28;20034;-55
2020/12/17 03:59:30;;;;;;;18.73;9.40;;;;;;;;;;10215487;28;20091;-55
2020/12/17 04:04:27;;;;;;;21.50;9.97;;;;;;;;;;10202210;28;20130;-53
2020/12/17 04:09:24;;;;;;;23.63;9.57;;;;;;;;;;10189056;28;20053;-60
2020/12/17 04:14:24;;;;;;;15.97;8.23;;;;;;;;;;10204582;28;20540;-61
2020/12/17 04:19:22;;;;;;;21.73;10.02;;;;;;;;;;10182906;28;20061;-55
2020/12/17 04:24:19;;;;;;;23.67;9.27;;;;;;;;;;10194050;28;20056;-59
2020/12/17 04:29:17;;;;;;;25.23;10.37;;;;;;;;;;10204968;28;21097;-54
2020/12/17 04:34:14;;;;;;;21.97;10.47;;;;;;;;;;10196237;28;20121;-59
2020/12/17 04:39:12;;;;;;;17.17;8.17;;;;;;;;;;10205766;28;20042;-58
2020/12/17 04:44:09;;;;;;;24.17;8.77;;;;;;;;;;10204843;28;20523;-57
2020/12/17 04:49:07;;;;;;;22.97;9.73;;;;;;;;;;10195004;28;20046;-60
2020/12/17 04:54:04;;;;;;;21.43;9.60;;;;;;;;;;10195069;28;20513;-60
2020/12/17 04:59:02;;;;;;;19.60;9.87;;;;;;;;;;10185727;28;20527;-58
2020/12/17 05:03:59;;;;;;;25.57;11.50;;;;;;;;;;10179927;28;20049;-54
2020/12/17 05:08:56;;;;;;;20.87;11.20;;;;;;;;;;10197449;28;20433;-57
2020/12/17 05:13:54;;;;;;;19.87;10.60;;;;;;;;;;10191003;28;20089;-62
2020/12/17 05:18:51;;;;;;;27.60;15.17;;;;;;;;;;10187022;28;20049;-61
2020/12/17 05:23:49;;;;;;;31.73;13.17;;;;;;;;;;10197367;28;20041;-58
2020/12/17 05:28:50;;;;;;;26.05;11.05;;;;;;;;;;10182217;28;20054;-62
2020/12/17 05:33:48;;;;;;;28.35;13.85;;;;;;;;;;10186267;28;20031;-55
2020/12/17 05:38:47;;;;;;;22.27;11.07;;;;;;;;;;10188585;28;20038;-55
2020/12/17 05:43:44;;;;;;;24.95;11.43;;;;;;;;;;10190355;28;20051;-56
2020/12/17 05:48:42;;;;;;;23.03;11.80;;;;;;;;;;10190327;28;20055;-57
2020/12/17 05:53:39;;;;;;;25.23;10.53;;;;;;;;;;10204222;28;20045;-56
2020/12/17 05:58:42;;;;;;;22.17;10.37;;;;;;;;;;10209334;28;20050;-53
2020/12/17 06:03:40;;;;;;;24.73;11.57;;;;;;;;;;10181589;28;20493;-56
2020/12/17 06:08:39;;;;;;;27.17;15.20;;;;;;;;;;10199495;28;20364;-54
2020/12/17 06:13:38;;;;;;;26.02;12.02;;;;;;;;;;10216333;28;20080;-54
2020/12/17 06:18:37;;;;;;;22.00;11.20;;;;;;;;;;10204926;28;20034;-58
2020/12/17 06:23:36;;;;;;;21.90;10.27;;;;;;;;;;10196356;28;20034;-58
2020/12/17 06:28:42;;;;;;;24.40;12.10;;;;;;;;;;10194213;28;20508;-59
2020/12/17 06:33:41;;;;;;;22.52;10.55;;;;;;;;;;10198424;28;20031;-54
2020/12/17 06:38:39;;;;;;;21.27;10.05;;;;;;;;;;10206905;28;20422;-56
2020/12/17 06:43:39;;;;;;;26.23;11.20;;;;;;;;;;10207652;28;20042;-58
2020/12/17 06:48:38;;;;;;;25.25;11.35;;;;;;;;;;10159362;28;20042;-56
2020/12/17 06:53:36;;;;;;;24.98;12.43;;;;;;;;;;10195720;28;20061;-60
2020/12/17 06:58:33;;;;;;;31.63;13.15;;;;;;;;;;10187881;28;20121;-61
2020/12/17 07:03:43;;;;;;;21.33;9.60;;;;;;;;;;10200293;28;20143;-57
2020/12/17 07:08:41;;;;;;;15.98;8.10;;;;;;;;;;10182432;28;20050;-59
2020/12/17 07:13:41;;;;;;;24.88;10.80;;;;;;;;;;10182051;28;20042;-60
2020/12/17 07:18:39;;;;;;;28.52;12.80;;;;;;;;;;10186395;28;20038;-57
2020/12/17 07:23:37;;;;;;;32.17;12.83;;;;;;;;;;10203731;28;20045;-59
2020/12/17 07:28:35;;;;;;;;;;;;;;;;;;10184073;28;20097;-58
2020/12/17 07:33:38;;;;;;;23.33;10.38;;;;;;;;;;10185896;28;19917;-58
2020/12/17 07:38:36;;;;;;;31.63;14.82;;;;;;;;;;10186185;28;20057;-59
2020/12/17 07:43:40;;;;;;;32.15;12.50;;;;;;;;;;10196263;28;20130;-57
2020/12/17 07:48:41;;;;;;;23.08;10.82;;;;;;;;;;10183577;28;20035;-58
2020/12/17 07:53:39;;;;;;;34.35;12.98;;;;;;;;;;10185032;28;20049;-63
2020/12/17 07:58:37;;;;;;;27.95;12.63;;;;;;;;;;10183097;28;20843;-60
2020/12/17 08:03:42;;;;;;;27.02;12.85;;;;;;;;;;10190351;28;20042;-54
2020/12/17 08:08:39;;;;;;;25.45;11.02;;;;;;;;;;10191793;28;20048;-60
2020/12/17 08:13:37;;;;;;;26.97;10.90;;;;;;;;;;10193259;28;20041;-57
2020/12/17 08:18:37;;;;;;;22.50;11.00;;;;;;;;;;10156684;28;20049;-55
2020/12/17 08:23:41;;;;;;;19.17;9.35;;;;;;;;;;10177166;28;20031;-57
2020/12/17 08:28:40;;;;;;;20.25;9.45;;;;;;;;;;10196404;28;20035;-60
2020/12/17 08:33:41;;;;;;;23.50;10.77;;;;;;;;;;10181606;28;20034;-55
2020/12/17 08:38:39;;;;;;;19.90;9.10;;;;;;;;;;10184723;28;20063;-59
2020/12/17 08:43:46;;;;;;;19.53;8.53;;;;;;;;;;10152100;28;20112;-59
2020/12/17 08:48:44;;;;;;;19.63;9.88;;;;;;;;;;10189797;28;20293;-56
2020/12/17 08:53:42;;;;;;;25.30;12.02;;;;;;;;;;10199297;28;20534;-60
2020/12/17 08:58:46;;;;;;;23.98;10.38;;;;;;;;;;10167157;28;20062;-59
2020/12/17 09:03:44;;;;;;;24.88;12.60;;;;;;;;;;10192833;28;20045;-59
2020/12/17 09:08:42;;;;;;;19.48;9.52;;;;;;;;;;10180677;28;20042;-60
2020/12/17 09:13:39;;;;;;;14.60;7.63;;;;;;;;;;10190060;28;20037;-59
2020/12/17 09:18:36;;;;;;;19.20;9.57;;;;;;;;;;10198920;28;20269;-60
2020/12/17 09:23:34;;;;;;;15.43;9.00;;;;;;;;;;10202633;28;20543;-59
2020/12/17 09:28:31;;;;;;;17.20;8.70;;;;;;;;;;10192985;28;20073;-60
2020/12/17 09:33:29;;;;;;;19.53;9.30;;;;;;;;;;10188635;28;20030;-61
2020/12/17 09:38:26;;;;;;;19.07;8.47;;;;;;;;;;10196950;28;20488;-61
2020/12/17 09:43:24;;;;;;;11.60;6.37;;;;;;;;;;10205616;28;20038;-62
2020/12/17 09:48:26;;;;;;;13.88;6.70;;;;;;;;;;10203606;28;20045;-63
2020/12/17 09:53:23;;;;;;;13.60;7.28;;;;;;;;;;10210934;28;20113;-57
2020/12/17 09:58:21;;;;;;;12.75;6.40;;;;;;;;;;10203279;28;20121;-60
2020/12/17 10:03:18;;;;;;;9.47;4.93;;;;;;;;;;10208064;28;20034;-59
2020/12/17 10:08:16;;;;;;;12.40;6.10;;;;;;;;;;10211982;28;20042;-58
2020/12/17 10:13:13;;;;;;;11.87;6.30;;;;;;;;;;10192920;28;20030;-63
2020/12/17 10:23:17;;;;;;;12.23;5.72;;;;;;;;;;10382701;27;21264;-65
2020/12/17 10:28:14;;;;;;;12.47;6.87;;;;;;;;;;10377804;28;20036;-65
2020/12/17 10:33:12;;;;;;;7.90;5.27;;;;;;;;;;10380699;28;20040;-65
2020/12/17 10:38:09;;;;;;;11.90;6.20;;;;;;;;;;10388416;28;20071;-65
2020/12/17 10:43:07;;;;;;;12.53;6.43;;;;;;;;;;10391280;28;20207;-65
2020/12/17 10:48:04;;;;;;;9.27;6.05;;;;;;;;;;10391756;28;20047;-65
2020/12/17 10:53:02;;;;;;;15.13;6.10;;;;;;;;;;10391362;28;20521;-64
2020/12/17 10:57:59;;;;;;;9.87;6.00;;;;;;;;;;10389223;28;20033;-64
2020/12/17 11:02:56;;;;;;;9.07;5.20;;;;;;;;;;10398005;28;20041;-65
2020/12/17 11:07:55;;;;;;;7.40;4.70;;;;;;;;;;10395555;28;20036;-65
2020/12/17 11:12:53;;;;;;;11.75;5.75;;;;;;;;;;10390962;28;20078;-64
2020/12/17 11:17:50;;;;;;;7.30;4.63;;;;;;;;;;10389024;28;20050;-65
2020/12/17 11:22:48;;;;;;;7.43;4.33;;;;;;;;;;10386245;28;20097;-64
2020/12/17 11:27:47;;;;;;;5.70;3.53;;;;;;;;;;10355182;28;20041;-64
2020/12/17 11:32:45;;;;;;;6.60;4.20;;;;;;;;;;10334093;28;20068;-64
2020/12/17 11:37:42;;;;;;;6.30;4.03;;;;;;;;;;10319220;28;20087;-64
2020/12/17 11:42:39;;;;;;;6.83;3.40;;;;;;;;;;10318459;28;20041;-64
2020/12/17 11:47:37;;;;;;;5.57;3.57;;;;;;;;;;10313246;28;20666;-63
2020/12/17 11:52:34;;;;;;;4.10;2.53;;;;;;;;;;10317038;28;20033;-65
2020/12/17 11:57:32;;;;;;;3.63;2.33;;;;;;;;;;10306987;28;20044;-65
2020/12/17 12:02:29;;;;;;;1.83;1.70;;;;;;;;;;10314838;28;20033;-65
2020/12/17 12:07:27;;;;;;;2.67;1.90;;;;;;;;;;10305694;28;20044;-65
2020/12/17 12:12:24;;;;;;;6.70;2.87;;;;;;;;;;10337724;28;20033;-66
2020/12/17 12:17:22;;;;;;;3.43;2.03;;;;;;;;;;10367037;28;20055;-65
2020/12/17 12:22:19;;;;;;;2.80;1.73;;;;;;;;;;10376983;28;20464;-64
2020/12/17 12:27:16;;;;;;;3.53;2.27;;;;;;;;;;10357141;28;20574;-64
2020/12/17 12:32:16;;;;;;;5.43;2.50;;;;;;;;;;10330045;28;20033;-64
2020/12/17 12:37:15;;;;;;;4.50;2.63;;;;;;;;;;10326009;28;20032;-64
2020/12/17 12:42:12;;;;;;;4.75;2.63;;;;;;;;;;10362730;28;20411;-64
2020/12/17 12:47:10;;;;;;;5.03;2.93;;;;;;;;;;10361427;28;20037;-64
2020/12/17 12:52:07;;;;;;;2.87;2.03;;;;;;;;;;10313165;28;20438;-65
2020/12/17 12:57:06;;;;;;;3.37;1.73;;;;;;;;;;10326899;28;20040;-63
2020/12/17 13:02:05;;;;;;;4.97;2.33;;;;;;;;;;10348047;28;20063;-64
2020/12/17 13:07:02;;;;;;;3.72;1.88;;;;;;;;;;10355028;28;20448;-63
2020/12/17 13:12:00;;;;;;;3.83;1.97;;;;;;;;;;10371843;28;20032;-64
2020/12/17 13:16:57;;;;;;;4.07;2.53;;;;;;;;;;10357231;28;20041;-63
2020/12/17 13:21:55;;;;;;;4.77;2.00;;;;;;;;;;10350203;28;20039;-63
2020/12/17 13:26:52;;;;;;;3.33;2.60;;;;;;;;;;10361730;28;20089;-64
2020/12/17 13:31:50;;;;;;;3.87;3.40;;;;;;;;;;10373008;28;20478;-63
2020/12/17 13:36:47;;;;;;;8.63;4.77;;;;;;;;;;10312804;28;20478;-63
2020/12/17 13:41:50;;;;;;;6.00;3.37;;;;;;;;;;10311902;28;20046;-64
2020/12/17 13:46:48;;;;;;;6.00;3.25;;;;;;;;;;10363169;28;20029;-63
2020/12/17 13:51:45;;;;;;;6.13;3.10;;;;;;;;;;10314488;28;20018;-64
2020/12/17 13:56:42;;;;;;;5.70;3.90;;;;;;;;;;10315218;28;20436;-64
2020/12/17 14:01:40;;;;;;;9.67;4.47;;;;;;;;;;10321619;28;20522;-64
2020/12/17 14:06:37;;;;;;;5.40;3.30;;;;;;;;;;10360541;28;20094;-64
2020/12/17 14:11:34;;;;;;;6.43;4.47;;;;;;;;;;10366205;28;20064;-63
2020/12/17 14:16:32;;;;;;;9.47;5.20;;;;;;;;;;10370450;28;20411;-64
2020/12/17 14:21:30;;;;;;;6.77;3.20;;;;;;;;;;10363843;28;20459;-64
2020/12/17 14:26:28;;;;;;;4.72;3.17;;;;;;;;;;10359580;28;20587;-64
2020/12/17 14:31:27;;;;;;;8.93;4.72;;;;;;;;;;10359925;28;20615;-63
2020/12/17 14:36:24;;;;;;;6.53;5.03;;;;;;;;;;10349802;28;20040;-63
2020/12/17 14:41:22;;;;;;;9.97;5.63;;;;;;;;;;10367439;28;20041;-64
2020/12/17 14:46:19;;;;;;;6.37;3.80;;;;;;;;;;10355767;28;20585;-64
2020/12/17 14:51:17;;;;;;;16.47;6.90;;;;;;;;;;10353376;28;20067;-63
2020/12/17 14:56:15;;;;;;;13.32;6.68;;;;;;;;;;10361517;28;21978;-63
2020/12/17 15:01:12;;;;;;;11.27;7.07;;;;;;;;;;10362386;28;20510;-64
2020/12/17 15:06:09;;;;;;;12.10;5.87;;;;;;;;;;10360117;28;20116;-63
2020/12/17 15:11:07;;;;;;;11.30;5.53;;;;;;;;;;10359083;28;20037;-64
2020/12/17 15:16:04;;;;;;;15.03;7.20;;;;;;;;;;10353575;28;20036;-63
2020/12/17 15:21:04;;;;;;;13.03;6.33;;;;;;;;;;10366040;28;20039;-63
2020/12/17 15:26:03;;;;;;;14.02;6.70;;;;;;;;;;10349104;28;20032;-63
2020/12/17 15:31:00;;;;;;;12.95;5.93;;;;;;;;;;10356102;28;20113;-63
2020/12/17 15:35:57;;;;;;;11.87;6.53;;;;;;;;;;10373602;28;20116;-64
2020/12/17 15:40:56;;;;;;;9.77;5.97;;;;;;;;;;10374514;28;20036;-63
2020/12/17 15:45:54;;;;;;;9.13;4.70;;;;;;;;;;10344884;28;20052;-63
2020/12/17 15:50:52;;;;;;;6.93;5.22;;;;;;;;;;10366310;28;20469;-63
2020/12/17 15:55:49;;;;;;;9.52;3.85;;;;;;;;;;10370711;28;20178;-63
2020/12/17 16:00:47;;;;;;;8.20;3.80;;;;;;;;;;10344788;28;20177;-64
2020/12/17 16:05:44;;;;;;;7.10;4.87;;;;;;;;;;10376970;28;20113;-64
2020/12/17 16:10:42;;;;;;;10.17;4.80;;;;;;;;;;10378260;28;20036;-63
2020/12/17 16:15:40;;;;;;;12.40;5.28;;;;;;;;;;10332287;28;20029;-62
2020/12/17 16:20:37;;;;;;;9.83;5.03;;;;;;;;;;10358580;28;20510;-63
2020/12/17 16:25:37;;;;;;;9.43;5.97;;;;;;;;;;10368150;28;20059;-64
2020/12/17 16:30:34;;;;;;;6.60;3.60;;;;;;;;;;10335860;28;20069;-63
2020/12/17 16:35:33;;;;;;;7.53;3.60;;;;;;;;;;10354772;28;20112;-63
2020/12/17 16:40:30;;;;;;;14.15;3.85;;;;;;;;;;10359485;28;20506;-63
2020/12/17 16:45:29;;;;;;;8.40;5.23;;;;;;;;;;10349229;28;20040;-63
2020/12/17 16:50:27;;;;;;;4.78;3.90;;;;;;;;;;10354126;28;20460;-63
2020/12/17 16:55:24;;;;;;;5.93;4.25;;;;;;;;;;10349197;28;20194;-63
2020/12/17 17:00:22;;;;;;;11.47;5.00;;;;;;;;;;10326134;28;20415;-63
2020/12/17 17:05:19;;;;;;;10.40;5.97;;;;;;;;;;10316348;28;20574;-63
2020/12/17 17:10:16;;;;;;;10.30;5.63;;;;;;;;;;10344733;28;20507;-64
2020/12/17 17:15:14;;;;;;;10.00;4.93;;;;;;;;;;10369107;28;20044;-63
2020/12/17 17:20:11;;;;;;;9.80;5.97;;;;;;;;;;10365820;28;20039;-64
2020/12/17 17:25:09;;;;;;;11.40;6.67;;;;;;;;;;10373129;28;20037;-64
2020/12/17 17:30:07;;;;;;;13.27;6.53;;;;;;;;;;10363217;28;20647;-63
2020/12/17 17:35:04;;;;;;;5.50;3.93;;;;;;;;;;10370669;28;20029;-63
2020/12/17 17:40:02;;;;;;;7.07;5.00;;;;;;;;;;10365792;28;20032;-63
2020/12/17 17:44:59;;;;;;;10.20;6.03;;;;;;;;;;10369247;28;20070;-63
2020/12/17 17:49:57;;;;;;;13.43;7.07;;;;;;;;;;10368793;28;20044;-64
2020/12/17 17:54:54;;;;;;;10.77;5.70;;;;;;;;;;10374263;28;20044;-64
2020/12/17 17:59:53;;;;;;;15.17;7.50;;;;;;;;;;10339889;28;20693;-64
2020/12/17 18:04:51;;;;;;;12.73;5.85;;;;;;;;;;10358531;28;20032;-65
2020/12/17 18:09:51;;;;;;;14.68;6.72;;;;;;;;;;10366245;28;20410;-64
2020/12/17 18:14:49;;;;;;;13.88;7.82;;;;;;;;;;10364309;28;20029;-64
2020/12/17 18:19:46;;;;;;;13.47;8.23;;;;;;;;;;10349966;28;20074;-63
2020/12/17 18:24:44;;;;;;;14.43;6.93;;;;;;;;;;10362256;28;20033;-63
2020/12/17 18:29:41;;;;;;;11.87;7.03;;;;;;;;;;10351409;28;20052;-63
2020/12/17 18:34:39;;;;;;;15.10;6.77;;;;;;;;;;10363083;28;20178;-63
2020/12/17 18:39:36;;;;;;;12.80;5.53;;;;;;;;;;10357274;28;20033;-63
2020/12/17 18:44:34;;;;;;;12.30;6.10;;;;;;;;;;10341242;28;20040;-64
2020/12/17 18:49:32;;;;;;;12.02;6.07;;;;;;;;;;10346376;28;20091;-64
2020/12/17 18:54:29;;;;;;;12.40;6.23;;;;;;;;;;10376629;28;20133;-63
2020/12/17 18:59:27;;;;;;;6.60;4.03;;;;;;;;;;10379228;28;20036;-64
2020/12/17 19:04:24;;;;;;;11.93;7.13;;;;;;;;;;10366527;28;20020;-63
2020/12/17 19:09:21;;;;;;;20.83;8.47;;;;;;;;;;10352079;28;20047;-64
2020/12/17 19:14:19;;;;;;;12.77;7.43;;;;;;;;;;10357717;28;20078;-65
2020/12/17 19:19:16;;;;;;;20.63;9.13;;;;;;;;;;10364114;28;20028;-63
2020/12/17 19:24:15;;;;;;;15.27;7.03;;;;;;;;;;10369414;28;20037;-63
2020/12/17 19:29:12;;;;;;;17.33;7.68;;;;;;;;;;10357219;28;20461;-64
2020/12/17 19:34:10;;;;;;;13.33;5.90;;;;;;;;;;10366411;28;20167;-65
2020/12/17 19:39:08;;;;;;;15.93;6.97;;;;;;;;;;10380093;28;21561;-63
2020/12/17 19:44:06;;;;;;;;;;;;;;;;;;10363116;28;20090;-63
2020/12/17 19:49:03;;;;;;;13.75;9.02;;;;;;;;;;10371138;28;20432;-63
2020/12/17 19:54:00;;;;;;;20.43;10.10;;;;;;;;;;10374705;28;20036;-63
2020/12/17 19:59:02;;;;;;;23.13;8.97;;;;;;;;;;10365021;28;20101;-63
2020/12/17 20:04:00;;;;;;;20.45;10.95;;;;;;;;;;10366329;28;20090;-64
2020/12/17 20:08:57;;;;;;;22.43;10.90;;;;;;;;;;10356249;28;20044;-63
2020/12/17 20:13:55;;;;;;;14.57;8.80;;;;;;;;;;10363379;28;20100;-63
2020/12/17 20:18:52;;;;;;;21.37;10.60;;;;;;;;;;10366906;28;20028;-65
2020/12/17 20:23:50;;;;;;;20.33;10.17;;;;;;;;;;10358857;28;20402;-64
2020/12/17 20:28:48;;;;;;;17.38;9.15;;;;;;;;;;10347960;28;20039;-64
2020/12/17 20:33:46;;;;;;;13.87;8.37;;;;;;;;;;10357128;28;20032;-64
2020/12/17 20:38:43;;;;;;;16.60;8.43;;;;;;;;;;10371818;28;20032;-65
2020/12/17 20:43:41;;;;;;;14.10;8.50;;;;;;;;;;10361842;28;20153;-65
2020/12/17 20:48:38;;;;;;;15.70;9.00;;;;;;;;;;10362120;28;20035;-64
2020/12/17 20:53:36;;;;;;;21.77;7.80;;;;;;;;;;10369993;28;20032;-65
2020/12/17 20:58:34;;;;;;;13.27;8.03;;;;;;;;;;10360211;28;20541;-65
2020/12/17 21:03:32;;;;;;;20.67;8.48;;;;;;;;;;10368533;28;20490;-65
2020/12/17 21:08:31;;;;;;;16.40;8.20;;;;;;;;;;10357952;28;20124;-66
2020/12/17 21:13:28;;;;;;;11.30;6.50;;;;;;;;;;10361929;28;20170;-66
2020/12/17 21:18:26;;;;;;;10.87;6.83;;;;;;;;;;10346269;28;20644;-65
2020/12/17 21:23:25;;;;;;;17.45;7.75;;;;;;;;;;10366758;28;20032;-65
2020/12/17 21:28:22;;;;;;;23.80;9.52;;;;;;;;;;10362355;28;20414;-65
2020/12/17 21:33:19;;;;;;;13.17;4.87;;;;;;;;;;10360797;28;20063;-65
2020/12/17 21:38:17;;;;;;;7.60;5.20;;;;;;;;;;10372553;28;20028;-63
2020/12/17 21:43:14;;;;;;;17.60;6.43;;;;;;;;;;10369276;28;20085;-64
2020/12/17 21:48:11;;;;;;;13.73;6.33;;;;;;;;;;10350618;28;20017;-64
2020/12/17 21:53:09;;;;;;;14.27;3.97;;;;;;;;;;10349459;28;20029;-65
2020/12/17 21:58:06;;;;;;;7.13;5.07;;;;;;;;;;10357038;28;20134;-64
2020/12/17 22:03:04;;;;;;;17.60;6.97;;;;;;;;;;10340865;28;20028;-66
2020/12/17 22:08:01;;;;;;;10.73;6.50;;;;;;;;;;10361542;28;20035;-67
2020/12/17 22:12:58;;;;;;;12.63;6.33;;;;;;;;;;10358667;28;20037;-66
2020/12/17 22:17:56;;;;;;;17.87;8.50;;;;;;;;;;10354525;28;20115;-65
2020/12/17 22:22:53;;;;;;;11.93;6.00;;;;;;;;;;10341689;28;20037;-65
2020/12/17 22:27:51;;;;;;;15.57;5.83;;;;;;;;;;10288100;28;20033;-62
2020/12/17 22:32:48;;;;;;;15.70;5.93;;;;;;;;;;10340458;28;20041;-64
2020/12/17 22:37:46;;;;;;;12.53;5.53;;;;;;;;;;10358309;28;20669;-64
2020/12/17 22:42:43;;;;;;;11.17;5.53;;;;;;;;;;10358058;28;20041;-63
2020/12/17 22:47:40;;;;;;;11.30;4.43;;;;;;;;;;10370181;28;20045;-64
2020/12/17 22:52:39;;;;;;;8.27;5.40;;;;;;;;;;10341310;28;20068;-63
2020/12/17 22:57:36;;;;;;;22.88;7.53;;;;;;;;;;10344164;28;20037;-63
2020/12/17 23:02:34;;;;;;;13.67;6.43;;;;;;;;;;10359181;28;20037;-63
2020/12/17 23:07:34;;;;;;;8.70;5.25;;;;;;;;;;10364481;28;20032;-63
2020/12/17 23:12:32;;;;;;;13.13;6.53;;;;;;;;;;10366592;28;20033;-63
2020/12/17 23:17:29;;;;;;;15.60;5.87;;;;;;;;;;10367453;28;20037;-64
2020/12/17 23:22:26;;;;;;;13.77;6.00;;;;;;;;;;10350997;28;20044;-63
2020/12/17 23:27:26;;;;;;;9.27;5.43;;;;;;;;;;10363519;28;20039;-64
2020/12/17 23:32:23;;;;;;;16.95;6.38;;;;;;;;;;10326129;28;20045;-64
2020/12/17 23:37:20;;;;;;;12.20;7.07;;;;;;;;;;10370723;28;20028;-64
2020/12/17 23:42:18;;;;;;;16.73;6.63;;;;;;;;;;10370094;28;20048;-63
2020/12/17 23:47:15;;;;;;;16.77;7.90;;;;;;;;;;10363530;28;20133;-63
2020/12/17 23:52:13;;;;;;;15.20;6.37;;;;;;;;;;10348695;28;20098;-64
2020/12/17 23:57:10;;;;;;;13.73;6.70;;;;;;;;;;10369255;28;20041;-63
